Prosperity — WDB9911 — position and weather

sailwx.info

Track history (hours):
 
Tides and Currents Weather Stations Pressure Air Temp Water Temp Dewpoint Dewpoint Depression Visibility Wind Speed Wind Dir Waves Ship Positions

Prosperity

Owner: American River Transportation Company, St Louis, MO. More information available from US FCC via Universal Licensing System and Coast Guard Vessel Documentation Center.

Last reported at 2016-Jun-22 14:33 UTC. Time now 2016-Jun-25 08:54 UTC.
Position N 41°31' W 090°31'.

MMSI: 366984960.

Date/timePositionNaut miles runAvg speedWind from/ knotsBaromVisibWave heightAir tempDewpointWater temp
2016-Jun-22 14:33N 41°31' W 090°31'0 0.0
2016-Jun-22 13:34N 41°31' W 090°31'2 1.8
2016-Jun-22 12:33N 41°31' W 090°34'0 0.2
2016-Jun-22 11:33N 41°31' W 090°34'0 0.0
2016-Jun-22 10:33N 41°31' W 090°34'0 0.0
2016-Jun-22 09:32N 41°31' W 090°34'0 0.0
2016-Jun-22 08:33N 41°31' W 090°34'0 0.0
2016-Jun-22 07:33N 41°31' W 090°34'0 0.4
2016-Jun-22 06:31N 41°31' W 090°35'1 0.0
2016-Jun-20 18:24N 41°30' W 090°36'4 4.2
2016-Jun-20 17:33N 41°31' W 090°31'1 0.0
2016-Jun-19 20:31N 41°31' W 090°30'3 2.7
2016-Jun-19 19:33N 41°31' W 090°34'0 0.2
2016-Jun-19 18:33N 41°31' W 090°34'0 0.2
2016-Jun-19 17:31N 41°31' W 090°34'  
Track history (hours):
 
Tides and Currents Weather Stations Pressure Air Temp Water Temp Dewpoint Dewpoint Depression Visibility Wind Speed Wind Dir Waves Ship Positions

Prosperity

Owner: American River Transportation Company, St Louis, MO. More information available from US FCC via Universal Licensing System and Coast Guard Vessel Documentation Center.

Last reported at 2016-Jun-22 14:33 UTC. Time now 2016-Jun-25 08:54 UTC.
Position N 41°31' W 090°31'.

MMSI: 366984960.

Date/timePositionNaut miles runAvg speedWind from/ knotsBaromVisibWave heightAir tempDewpointWater temp
2016-Jun-22 14:33N 41°31' W 090°31'0 0.0
2016-Jun-22 13:34N 41°31' W 090°31'2 1.8
2016-Jun-22 12:33N 41°31' W 090°34'0 0.2
2016-Jun-22 11:33N 41°31' W 090°34'0 0.0
2016-Jun-22 10:33N 41°31' W 090°34'0 0.0
2016-Jun-22 09:32N 41°31' W 090°34'0 0.0
2016-Jun-22 08:33N 41°31' W 090°34'0 0.0
2016-Jun-22 07:33N 41°31' W 090°34'0 0.4
2016-Jun-22 06:31N 41°31' W 090°35'1 0.0
2016-Jun-20 18:24N 41°30' W 090°36'4 4.2
2016-Jun-20 17:33N 41°31' W 090°31'1 0.0
2016-Jun-19 20:31N 41°31' W 090°30'3 2.7
2016-Jun-19 19:33N 41°31' W 090°34'0 0.2
2016-Jun-19 18:33N 41°31' W 090°34'0 0.2
2016-Jun-19 17:31N 41°31' W 090°34'  

Dump ship's entire track history